TimeEST,TemperatureF,Dew PointF,Humidity,Sea Level PressureIn,VisibilityMPH,Wind Direction,Wind SpeedMPH,Gust SpeedMPH,PrecipitationIn,Events,Conditions,WindDirDegrees,DateUTC
12:51 AM,37.9,18.0,45,30.17,10.0,South,10.4,-,N/A,,Mostly Cloudy,190,2011-11-19 05:51:00
1:51 AM,39.0,18.0,43,30.17,10.0,SSW,9.2,-,N/A,,Mostly Cloudy,200,2011-11-19 06:51:00
2:51 AM,39.9,18.0,41,30.18,10.0,SSW,10.4,-,N/A,,Overcast,210,2011-11-19 07:51:00
3:51 AM,41.0,18.0,40,30.18,10.0,SSW,11.5,-,N/A,,Mostly Cloudy,210,2011-11-19 08:51:00
4:51 AM,39.9,18.0,41,30.19,10.0,SSW,12.7,-,N/A,,Scattered Clouds,210,2011-11-19 09:51:00
5:51 AM,39.9,19.0,43,30.21,10.0,SSW,12.7,-,N/A,,Mostly Cloudy,210,2011-11-19 10:51:00
6:51 AM,39.0,19.9,46,30.23,10.0,SSW,9.2,-,N/A,,Scattered Clouds,210,2011-11-19 11:51:00
7:51 AM,39.0,19.9,46,30.22,10.0,SSW,11.5,-,N/A,,Scattered Clouds,200,2011-11-19 12:51:00
8:51 AM,41.0,21.9,47,30.22,10.0,SSW,15.0,-,N/A,,Mostly Cloudy,200,2011-11-19 13:51:00
9:51 AM,45.0,24.1,44,30.22,10.0,SSW,18.4,24.2,N/A,,Mostly Cloudy,200,2011-11-19 14:51:00
10:51 AM,48.9,27.0,43,30.21,10.0,SW,17.3,27.6,N/A,,Mostly Cloudy,220,2011-11-19 15:51:00
11:51 AM,50.0,28.9,44,30.17,10.0,SSW,16.1,26.5,N/A,,Mostly Cloudy,200,2011-11-19 16:51:00
12:51 PM,53.1,32.0,45,30.14,10.0,SSW,16.1,25.3,N/A,,Mostly Cloudy,200,2011-11-19 17:51:00
1:51 PM,53.1,34.0,48,30.11,10.0,South,19.6,27.6,N/A,,Mostly Cloudy,190,2011-11-19 18:51:00
2:51 PM,53.1,35.1,50,30.10,10.0,SSW,23.0,27.6,N/A,,Mostly Cloudy,210,2011-11-19 19:51:00
3:51 PM,52.0,35.1,53,30.10,10.0,SSW,11.5,-,N/A,,Overcast,210,2011-11-19 20:51:00
4:51 PM,52.0,37.0,57,30.10,10.0,SSW,10.4,-,N/A,,Overcast,210,2011-11-19 21:51:00
5:51 PM,51.1,37.0,59,30.07,10.0,South,11.5,-,N/A,,Overcast,180,2011-11-19 22:51:00
6:51 PM,52.0,37.0,57,30.07,10.0,South,13.8,-,N/A,,Mostly Cloudy,190,2011-11-19 23:51:00
7:51 PM,51.1,37.0,59,30.06,10.0,South,15.0,-,N/A,,Overcast,180,2011-11-20 00:51:00
8:51 PM,52.0,37.0,57,30.03,10.0,South,15.0,-,N/A,,Overcast,180,2011-11-20 01:51:00
9:51 PM,53.1,37.0,55,30.02,10.0,SSW,12.7,-,N/A,,Mostly Cloudy,200,2011-11-20 02:51:00
10:51 PM,55.9,37.9,51,30.00,10.0,SSW,17.3,26.5,N/A,,Overcast,200,2011-11-20 03:51:00
11:51 PM,57.0,41.0,55,30.00,10.0,SSW,15.0,28.8,N/A,,Mostly Cloudy,210,2011-11-20 04:51:00